Flight Track Log - Related Links

Times and Time Zones

All times are in EDT time to prevent confusion due to time zone crossing. See the AWE1253 flight status page for this flight to view local times or setup timezone preferences in your user account.

Time Position Orientation Groundspeed Altitude Reporting Facility
EDT Latitude Longitude Course Direction KTS MPH feet Rate Location/Type
Sat 08:36:06 PM 39.8667 -75.2833 237° Southwest 165 190 1,100  Level Philadelphia TRACON
Sat 08:36:54 PM 39.8500 -75.3333 247° West 172 198 3,000 2,722 Climbing Philadelphia TRACON
Sat 08:37:54 PM 39.8333 -75.4000 252° West 234 269 6,000 2,099 Climbing Philadelphia TRACON
Sat 08:38:00 PM 39.8333 -75.6762 270° West  Level FlightAware Approximate
Sat 08:39:00 PM 39.8131 -75.8171 232° Southwest  Level FlightAware Approximate
Sat 08:40:00 PM 39.7423 -75.9351 232° Southwest  Level FlightAware Approximate
Sat 08:40:17 PM 39.8356 -75.6450 271° West 321 369 10,100  Level New York Center
Sat 08:41:00 PM 39.6676 -76.0482 237° Southwest  Level FlightAware Approximate
Sat 08:41:18 PM 39.7947 -75.7747 248° West 343 395 13,000  Level New York Center
Sat 08:42:16 PM 39.7444 -75.8792 238° Southwest 356 410 15,700 2,471 Climbing New York Center
Sat 08:43:17 PM 39.6858 -75.9800 233° Southwest 380 437 17,900 2,361 Climbing New York Center
Sat 08:44:18 PM 39.6264 -76.0969 237° Southwest 390 449 20,500 2,547 Climbing New York Center
Sat 08:45:03 PM 39.5725 -76.1892 233° Southwest 397 457 22,400 2,457 Climbing Washington Center
Sat 08:46:03 PM 39.5072 -76.3097 235° Southwest 421 484 24,800 2,650 Climbing Washington Center
Sat 08:47:03 PM 39.4419 -76.4219 233° Southwest 421 484 27,700 2,529 Climbing Washington Center
Sat 08:48:04 PM 39.3703 -76.5311 230° Southwest 411 473 29,900 1,131 Climbing Washington Center
Sat 08:49:05 PM 39.3028 -76.6350 230° Southwest 398 458 30,000 50 Climbing Washington Center
Sat 08:50:03 PM 39.2350 -76.7383 230° Southwest 393 452 30,000  Level Washington Center
Sat 08:51:03 PM 39.1694 -76.8472 232° Southwest 388 447 30,000  Level Washington Center
Sat 08:52:05 PM 39.1017 -76.9531 230° Southwest 388 447 30,000  Level Washington Center
Sat 08:53:05 PM 39.0317 -77.0506 227° Southwest 388 447 30,000  Level Washington Center
Sat 08:54:03 PM 38.9492 -77.1425 221° Southwest 388 447 30,000  Level Washington Center
Sat 08:55:04 PM 38.8667 -77.2314 220° Southwest 393 452 30,000  Level Washington Center
Sat 08:56:05 PM 38.7864 -77.3200 221° Southwest 393 452 30,000  Level Washington Center
Sat 08:57:02 PM 38.7058 -77.4086 221° Southwest 388 447 30,000  Level Washington Center
Sat 08:58:03 PM 38.6231 -77.4969 220° Southwest 388 447 30,000  Level Washington Center
Sat 08:59:03 PM 38.5339 -77.5928 220° Southwest 388 447 30,000  Level Washington Center
Sat 09:00:03 PM 38.4553 -77.6808 221° Southwest 388 447 30,000  Level Washington Center
Sat 09:01:04 PM 38.3744 -77.7686 220° Southwest 388 447 30,000  Level Washington Center
Sat 09:02:03 PM 38.2958 -77.8564 221° Southwest 383 441 30,000  Level Washington Center
Sat 09:03:04 PM 38.2150 -77.9411 219° Southwest 383 441 30,000  Level Washington Center
Sat 09:04:05 PM 38.1339 -78.0283 220° Southwest 383 441 30,000  Level Washington Center
Sat 09:05:03 PM 38.0508 -78.1153 220° Southwest 383 441 30,000  Level Washington Center
Sat 09:06:04 PM 37.9739 -78.1969 220° Southwest 376 433 30,000  Level Washington Center
Sat 09:07:03 PM 37.8867 -78.2781 216° Southwest 382 440 30,000  Level Washington Center
Sat 09:08:04 PM 37.8014 -78.3592 217° Southwest 387 445 30,000  Level Washington Center
Sat 09:09:03 PM 37.7161 -78.4375 216° Southwest 387 445 30,000  Level Washington Center
Sat 09:10:03 PM 37.6308 -78.5183 217° Southwest 387 445 30,000  Level Washington Center
Sat 09:11:04 PM 37.5517 -78.5939 217° Southwest 393 452 30,000  Level Washington Center
Sat 09:12:03 PM 37.4683 -78.6742 217° Southwest 393 452 30,000  Level Washington Center
Sat 09:13:03 PM 37.3828 -78.7519 216° Southwest 393 452 30,000  Level Washington Center
Sat 09:14:05 PM 37.2972 -78.8317 217° Southwest 393 452 30,000  Level Washington Center
Sat 09:15:05 PM 37.2031 -78.9192 217° Southwest 393 452 30,000  Level Washington Center
Sat 09:16:03 PM 37.1175 -78.9961 216° Southwest 393 452 30,000  Level Washington Center
Sat 09:17:03 PM 37.0317 -79.0756 216° Southwest 393 452 30,000  Level Washington Center
Sat 09:18:04 PM 36.9461 -79.1550 217° Southwest 393 452 30,000  Level Washington Center
Sat 09:19:04 PM 36.8622 -79.2342 217° Southwest 388 447 30,000  Level Washington Center
Sat 09:20:04 PM 36.7869 -79.3033 216° Southwest 388 447 30,000  Level Washington Center
Sat 09:21:03 PM 36.7011 -79.3794 215° Southwest 388 447 30,000  Level Washington Center
Sat 09:22:04 PM 36.6153 -79.4606 217° Southwest 388 447 30,000  Level Washington Center
Sat 09:23:53 PM 36.4517 -79.6044 215° Southwest 368 423 30,000  Level Atlanta Center
Sat 09:24:53 PM 36.3667 -79.6814 216° Southwest 368 423 30,000  Level Atlanta Center
Sat 09:25:53 PM 36.2819 -79.7581 216° Southwest 374 430 30,000  Level Atlanta Center
Sat 09:26:53 PM 36.2050 -79.8292 217° Southwest 379 436 30,000  Level Atlanta Center
Sat 09:27:53 PM 36.1219 -79.9028 216° Southwest 379 436 30,000  Level Atlanta Center
Sat 09:28:53 PM 36.0347 -79.9767 214° Southwest 379 436 30,000  Level Atlanta Center
Sat 09:29:53 PM 35.9386 -80.0275 203° Southwest 379 436 30,000  Level Atlanta Center
Sat 09:30:53 PM 35.8297 -80.0817 202° Southwest 385 443 30,000  Level Atlanta Center
Sat 09:31:53 PM 35.7311 -80.1300 202° Southwest 390 449 30,000  Level Atlanta Center
Sat 09:32:53 PM 35.6325 -80.1806 203° Southwest 390 449 30,000  Level Atlanta Center
Sat 09:33:53 PM 35.5342 -80.2336 204° Southwest 390 449 30,000  Level Atlanta Center
Sat 09:34:53 PM 35.4458 -80.2761 201° Southwest 390 449 30,000  Level Atlanta Center
Sat 09:35:53 PM 35.3450 -80.3264 202° Southwest 390 449 30,000  Level Atlanta Center
Sat 09:36:53 PM 35.2444 -80.3794 203° Southwest 391 450 30,000  Level Atlanta Center
Sat 09:37:53 PM 35.1478 -80.4267 202° Southwest 391 450 30,000  Level Atlanta Center
Sat 09:39:40 PM 34.9572 -80.5219 202° Southwest 401 461 30,000  Level Jacksonville Center
Sat 09:40:40 PM 34.8581 -80.5700 202° Southwest 396 456 30,000  Level Jacksonville Center
Sat 09:41:40 PM 34.7672 -80.6131 201° Southwest 373 429 30,000  Level Jacksonville Center
Sat 09:42:40 PM 34.6678 -80.6636 203° Southwest 373 429 30,000  Level Jacksonville Center
Sat 09:43:40 PM 34.5728 -80.7139 204° Southwest 400 460 30,000  Level Jacksonville Center
Sat 09:44:40 PM 34.4756 -80.7592 201° Southwest 400 460 30,000  Level Jacksonville Center
Sat 09:45:40 PM 34.3742 -80.8094 202° Southwest 383 441 30,000  Level Jacksonville Center
Sat 09:46:40 PM 34.2747 -80.8547 201° Southwest 380 437 30,000 -50 Level Jacksonville Center
Sat 09:47:40 PM 34.1775 -80.9022 202° Southwest 375 432 29,900 -50 Descending Jacksonville Center
Sat 09:48:40 PM 34.0803 -80.9494 202° Southwest 375 432 29,900 50 Level Jacksonville Center
Sat 09:49:40 PM 33.9808 -80.9967 201° Southwest 375 432 30,000 50 Climbing Jacksonville Center
Sat 09:50:40 PM 33.8958 -81.0361 201° Southwest 375 432 30,000  Level Jacksonville Center
Sat 09:51:40 PM 33.7942 -81.0858 202° Southwest 375 432 30,000  Level Jacksonville Center
Sat 09:52:40 PM 33.6886 -81.1403 203° Southwest 380 437 30,000  Level Jacksonville Center
Sat 09:53:40 PM 33.5892 -81.1897 203° Southwest 380 437 30,000  Level Jacksonville Center
Sat 09:54:40 PM 33.5000 -81.2336 202° Southwest 380 437 30,000  Level Jacksonville Center
Sat 09:55:40 PM 33.4044 -81.2803 202° Southwest 380 437 30,000  Level Jacksonville Center
Sat 09:56:40 PM 33.3050 -81.3267 201° Southwest 380 437 30,000  Level Jacksonville Center
Sat 09:57:40 PM 33.2075 -81.3731 202° Southwest 380 437 30,000  Level Jacksonville Center
Sat 09:58:40 PM 33.1100 -81.4219 203° Southwest 380 437 30,000  Level Jacksonville Center
Sat 09:59:40 PM 33.0122 -81.4706 203° Southwest 380 437 30,000  Level Jacksonville Center
Sat 10:00:40 PM 32.9147 -81.5167 202° Southwest 380 437 30,000  Level Jacksonville Center
Sat 10:01:40 PM 32.8172 -81.5653 203° Southwest 380 437 30,000  Level Jacksonville Center
Sat 10:02:40 PM 32.7175 -81.6136 202° Southwest 380 437 30,000  Level Jacksonville Center
Sat 10:03:40 PM 32.6178 -81.6569 200° South 380 437 30,000  Level Jacksonville Center
Sat 10:04:40 PM 32.5031 -81.6831 191° South 385 443 30,000  Level Jacksonville Center
Sat 10:05:40 PM 32.4094 -81.7042 191° South 390 449 30,000  Level Jacksonville Center
Sat 10:06:40 PM 32.2928 -81.7325 192° South 390 449 30,000  Level Jacksonville Center
Sat 10:07:40 PM 32.1886 -81.7583 192° South 390 449 30,000  Level Jacksonville Center
Sat 10:08:40 PM 32.0947 -81.7792 191° South 390 449 30,000  Level Jacksonville Center
Sat 10:09:40 PM 31.9781 -81.8050 191° South 390 449 30,000  Level Jacksonville Center
Sat 10:10:40 PM 31.8739 -81.8308 192° South 390 449 30,000  Level Jacksonville Center
Sat 10:11:40 PM 31.7697 -81.8564 192° South 385 443 30,000  Level Jacksonville Center
Sat 10:12:40 PM 31.6678 -81.8794 191° South 385 443 30,000  Level Jacksonville Center
Sat 10:13:40 PM 31.5739 -81.9025 192° South 385 443 30,000  Level Jacksonville Center
Sat 10:14:40 PM 31.4592 -81.9281 191° South 385 443 30,000  Level Jacksonville Center
Sat 10:15:40 PM 31.3531 -81.9558 193° South 385 443 30,000  Level Jacksonville Center
Sat 10:16:40 PM 31.2572 -81.9789 192° South 393 452 30,000  Level Jacksonville Center
Sat 10:17:40 PM 31.1528 -82.0017 191° South 393 452 30,000  Level Jacksonville Center
Sat 10:18:40 PM 31.0486 -82.0269 192° South 393 452 30,000  Level Jacksonville Center
Sat 10:19:40 PM 30.9422 -82.0522 192° South 393 452 30,000  Level Jacksonville Center
Sat 10:20:40 PM 30.8381 -82.0747 191° South 393 452 30,000  Level Jacksonville Center
Sat 10:21:40 PM 30.7317 -82.0997 191° South 393 452 30,000  Level Jacksonville Center
Sat 10:22:40 PM 30.6253 -82.1250 192° South 393 452 30,000  Level Jacksonville Center
Sat 10:23:40 PM 30.5192 -82.1428 188° South 393 452 30,000  Level Jacksonville Center
Sat 10:24:40 PM 30.4147 -82.1700 193° South 393 452 30,000 -50 Level Jacksonville Center
Sat 10:25:40 PM 30.3083 -82.1947 191° South 393 452 29,900  Descending Jacksonville Center
Sat 10:26:40 PM 30.2042 -82.2172 191° South 393 452 30,000 50 Climbing Jacksonville Center
Sat 10:27:40 PM 30.0978 -82.2419 191° South 393 452 30,000  Level Jacksonville Center
Sat 10:28:40 PM 29.9789 -82.2717 192° South 393 452 30,000  Level Jacksonville Center
Sat 10:29:40 PM 29.8725 -82.2961 191° South 393 452 30,000  Level Jacksonville Center
Sat 10:30:40 PM 29.7642 -82.3208 191° South 393 452 30,000 -100 Level Jacksonville Center
Sat 10:31:40 PM 29.6683 -82.3381 189° South 393 452 29,800 -600 Descending Jacksonville Center
Sat 10:32:40 PM 29.5575 -82.3531 187° South 393 452 28,800 -1,400 Descending Jacksonville Center
Sat 10:33:40 PM 29.4386 -82.3442 176° South 393 452 27,000 -1,700 Descending Jacksonville Center
Sat 10:34:40 PM 29.3258 -82.3281 173° South 393 452 25,400 -2,550 Descending Jacksonville Center
Sat 10:35:40 PM 29.2089 -82.3144 174° South 413 475 21,900 -2,850 Descending Jacksonville Center
Sat 10:36:40 PM 29.0981 -82.3008 174° South 418 481 19,700 -2,000 Descending Jacksonville Center
Sat 10:37:40 PM 28.9936 -82.2897 175° South 399 459 17,900 -1,940 Descending Jacksonville Center
Sat 10:39:27 PM 28.8167 -82.2667 173° South 365 420 14,300 -2,192 Descending Tampa TRACON
Sat 10:40:27 PM 28.7167 -82.2500 172° South 360 414 11,800 -1,650 Descending Tampa TRACON
Sat 10:41:27 PM 28.6167 -82.2667 188° South 339 390 11,000 -400 Descending Tampa TRACON
Sat 10:42:27 PM 28.5333 -82.2833 190° South 308 354 11,000  Level Tampa TRACON
Sat 10:43:27 PM 28.4500 -82.3000 190° South 318 366 11,000  Level Tampa TRACON
Sat 10:44:27 PM 28.3500 -82.3333 196° South 344 396 11,000 -200 Level Tampa TRACON
Sat 10:45:27 PM 28.2667 -82.3500 190° South 321 369 10,600 -950 Descending Tampa TRACON
Sat 10:46:27 PM 28.1833 -82.3667 190° South 299 344 9,100 -1,500 Descending Tampa TRACON
Sat 10:47:27 PM 28.1000 -82.3833 190° South 283 326 7,600 -1,700 Descending Tampa TRACON
Sat 10:48:27 PM 28.0333 -82.4000 192° South 255 293 5,700 -1,300 Descending Tampa TRACON
Sat 10:49:27 PM 27.9667 -82.4167 192° South 240 276 5,000 -496 Descending Tampa TRACON
Sat 10:50:28 PM 27.9167 -82.4333 196° South 208 239 4,700 -843 Descending Tampa TRACON
Sat 10:51:28 PM 27.8500 -82.4500 192° South 206 237 3,300 -1,050 Descending Tampa TRACON
Sat 10:52:28 PM 27.8500 -82.5167 270° West 217 250 2,600 -700 Descending Tampa TRACON

Login

Don't have an account? Register now (free) for customized features, flight alerts, and more!